createdAt,value
2019-03-22T00:00:37.809Z,98.40
2019-03-22T00:03:09.611Z,97.70
2019-03-22T00:05:40.322Z,99.57
2019-03-22T00:08:11.423Z,100.00
2019-03-22T00:10:42.831Z,100.00
2019-03-22T00:13:13.611Z,100.00
2019-03-22T00:15:44.626Z,100.00
2019-03-22T00:18:15.693Z,100.00
2019-03-22T00:20:46.968Z,100.00
2019-03-22T00:23:18.073Z,100.00
2019-03-22T00:25:49.290Z,100.00
2019-03-22T00:28:20.373Z,100.00
2019-03-22T00:30:51.514Z,100.00
2019-03-22T00:33:22.665Z,100.00
2019-03-22T00:35:53.903Z,100.00
2019-03-22T00:38:25.418Z,100.00
2019-03-22T00:40:56.906Z,100.00
2019-03-22T00:43:27.678Z,100.00
2019-03-22T00:45:58.787Z,100.00
2019-03-22T00:48:30.515Z,100.00
2019-03-22T00:51:01.258Z,100.00
2019-03-22T00:53:31.989Z,100.00
2019-03-22T00:56:03.258Z,100.00
2019-03-22T00:58:33.980Z,100.00
2019-03-22T01:01:05.238Z,100.00
2019-03-22T01:03:35.971Z,100.00
2019-03-22T01:06:07.742Z,100.00
2019-03-22T01:08:38.874Z,100.00
2019-03-22T01:11:10.725Z,100.00
2019-03-22T01:13:41.565Z,100.00
2019-03-22T01:16:12.311Z,100.00
2019-03-22T01:18:43.758Z,100.00
2019-03-22T01:21:14.804Z,100.00
2019-03-22T01:23:45.619Z,100.00
2019-03-22T01:26:16.986Z,100.00
2019-03-22T01:28:48.234Z,100.00
2019-03-22T01:31:18.982Z,100.00
2019-03-22T01:33:50.214Z,100.00
2019-03-22T01:36:21.134Z,100.00
2019-03-22T01:38:52.319Z,100.00
2019-03-22T01:41:23.686Z,100.00
2019-03-22T01:43:54.856Z,100.00
2019-03-22T01:46:25.630Z,100.00
2019-03-22T01:48:56.771Z,100.00
2019-03-22T01:51:27.916Z,100.00
2019-03-22T01:53:59.015Z,100.00
2019-03-22T01:56:29.796Z,100.00
2019-03-22T01:59:00.671Z,100.00
2019-03-22T02:01:31.637Z,100.00
2019-03-22T02:04:02.351Z,100.00
2019-03-22T02:06:33.422Z,100.00
2019-03-22T02:09:06.120Z,100.00
2019-03-22T02:11:36.866Z,100.00
2019-03-22T02:14:07.902Z,100.00
2019-03-22T02:16:39.631Z,100.00
2019-03-22T02:19:11.087Z,100.00
2019-03-22T02:21:44.614Z,100.00
2019-03-22T02:24:15.403Z,100.00
2019-03-22T02:26:46.200Z,100.00
2019-03-22T02:29:16.972Z,100.00
2019-03-22T02:31:47.765Z,100.00
2019-03-22T02:34:19.611Z,100.00
2019-03-22T02:36:50.376Z,100.00
2019-03-22T02:39:21.787Z,100.00
2019-03-22T02:41:52.844Z,100.00
2019-03-22T02:44:23.579Z,100.00
2019-03-22T02:46:54.365Z,100.00
2019-03-22T02:49:25.460Z,100.00
2019-03-22T02:51:56.271Z,100.00
2019-03-22T02:54:27.437Z,100.00
2019-03-22T02:56:58.209Z,100.00
2019-03-22T02:59:29.378Z,100.00
2019-03-22T03:02:00.559Z,100.00
2019-03-22T03:04:31.486Z,100.00
2019-03-22T03:07:02.235Z,100.00
2019-03-22T03:09:33.050Z,100.00
2019-03-22T03:12:03.791Z,100.00
2019-03-22T03:14:34.689Z,100.00
2019-03-22T03:19:37.160Z,100.00
2019-03-22T03:22:08.278Z,100.00
2019-03-22T03:24:39.080Z,100.00
2019-03-22T03:27:09.831Z,100.00
2019-03-22T03:29:40.574Z,100.00
2019-03-22T03:32:11.713Z,100.00
2019-03-22T03:34:42.514Z,100.00
2019-03-22T03:37:13.306Z,100.00
2019-03-22T03:39:49.298Z,100.00
2019-03-22T03:42:20.528Z,100.00
2019-03-22T03:44:51.391Z,100.00
2019-03-22T03:47:22.622Z,100.00
2019-03-22T03:49:53.472Z,100.00
2019-03-22T03:52:24.349Z,100.00
2019-03-22T03:54:55.510Z,100.00
2019-03-22T03:57:26.242Z,100.00
2019-03-22T03:59:57.024Z,100.00
2019-03-22T04:02:28.022Z,100.00
2019-03-22T04:04:59.874Z,100.00
2019-03-22T04:07:31.027Z,100.00
2019-03-22T04:10:01.936Z,100.00
2019-03-22T04:12:32.883Z,100.00
2019-03-22T04:15:04.445Z,100.00
2019-03-22T04:17:35.496Z,100.00
2019-03-22T04:20:06.672Z,100.00
2019-03-22T04:22:38.245Z,100.00
2019-03-22T04:25:09.372Z,100.00
2019-03-22T04:27:40.162Z,100.00
2019-03-22T04:30:11.092Z,100.00
2019-03-22T04:32:41.946Z,100.00
2019-03-22T04:35:12.663Z,100.00
2019-03-22T04:37:43.501Z,100.00
2019-03-22T04:40:22.797Z,100.00
2019-03-22T04:42:54.088Z,100.00
2019-03-22T04:45:27.230Z,100.00
2019-03-22T04:48:04.085Z,100.00
2019-03-22T04:50:38.288Z,100.00
2019-03-22T04:53:10.869Z,100.00
2019-03-22T04:55:44.595Z,100.00
2019-03-22T04:58:17.307Z,100.00
2019-03-22T05:00:49.383Z,100.00
2019-03-22T05:03:21.946Z,100.00
2019-03-22T05:05:55.738Z,100.00
2019-03-22T05:08:29.792Z,100.00
2019-03-22T05:11:03.879Z,100.00
2019-03-22T05:13:36.110Z,100.00
2019-03-22T05:16:09.824Z,100.00
2019-03-22T05:18:44.144Z,100.00
2019-03-22T05:21:17.320Z,100.00
2019-03-22T05:23:50.598Z,100.00
2019-03-22T05:26:22.772Z,100.00
2019-03-22T05:28:54.033Z,100.00
2019-03-22T05:32:00.108Z,100.00
2019-03-22T05:34:30.916Z,100.00
2019-03-22T05:37:02.722Z,100.00
2019-03-22T05:39:34.127Z,100.00
2019-03-22T05:42:04.954Z,100.00
2019-03-22T05:44:35.763Z,100.00
2019-03-22T05:47:06.720Z,100.00
2019-03-22T05:49:37.475Z,100.00
2019-03-22T05:52:09.519Z,100.00
2019-03-22T05:54:40.352Z,100.00
2019-03-22T05:57:13.732Z,100.00
2019-03-22T05:59:44.507Z,100.00
2019-03-22T06:02:15.290Z,100.00
2019-03-22T06:04:46.512Z,100.00
2019-03-22T06:07:17.680Z,100.00
2019-03-22T06:09:48.519Z,100.00
2019-03-22T06:12:19.280Z,100.00
2019-03-22T06:14:50.051Z,100.00
2019-03-22T06:17:21.033Z,100.00
2019-03-22T06:19:52.208Z,100.00
2019-03-22T06:22:23.675Z,100.00
2019-03-22T06:24:54.415Z,100.00
2019-03-22T06:27:25.860Z,100.00
2019-03-22T06:29:56.640Z,100.00
2019-03-22T06:32:27.652Z,100.00
2019-03-22T06:34:58.467Z,100.00
2019-03-22T06:37:29.984Z,100.00
2019-03-22T06:40:01.411Z,100.00
2019-03-22T06:42:32.639Z,100.00
2019-03-22T06:45:03.763Z,100.00
2019-03-22T06:47:34.639Z,100.00
2019-03-22T06:50:07.474Z,100.00
2019-03-22T06:52:38.834Z,100.00
2019-03-22T06:55:09.863Z,100.00
2019-03-22T06:57:40.653Z,100.00
2019-03-22T07:00:12.827Z,100.00
2019-03-22T07:02:43.547Z,100.00
2019-03-22T07:05:14.416Z,100.00
2019-03-22T07:07:45.537Z,100.00
2019-03-22T07:10:16.447Z,100.00
2019-03-22T07:12:47.220Z,100.00
2019-03-22T07:15:18.417Z,100.00
2019-03-22T07:17:49.206Z,100.00
2019-03-22T07:20:21.718Z,100.00
2019-03-22T07:22:52.424Z,100.00
2019-03-22T07:25:23.706Z,100.00
2019-03-22T07:27:55.059Z,100.00
2019-03-22T07:30:26.205Z,100.00
2019-03-22T07:32:56.997Z,100.00
2019-03-22T07:35:27.784Z,100.00
2019-03-22T07:37:59.030Z,100.00
2019-03-22T07:40:29.791Z,100.00
2019-03-22T07:43:00.566Z,100.00
2019-03-22T07:45:31.697Z,100.00
2019-03-22T07:48:02.433Z,100.00
2019-03-22T07:50:33.514Z,100.00
2019-03-22T07:53:04.426Z,99.90
2019-03-22T07:55:36.005Z,100.00
2019-03-22T07:58:07.161Z,99.59
2019-03-22T08:00:38.305Z,96.38
2019-03-22T08:03:09.346Z,95.78
2019-03-22T08:05:50.978Z,95.05
2019-03-22T08:08:12.989Z,92.67
2019-03-22T08:10:44.413Z,92.83
2019-03-22T08:13:15.533Z,90.97
2019-03-22T08:15:46.438Z,90.00
2019-03-22T08:18:17.734Z,91.29
2019-03-22T08:20:48.587Z,90.60
2019-03-22T08:23:21.198Z,90.00
2019-03-22T08:25:52.307Z,88.82
2019-03-22T08:28:23.443Z,87.60
2019-03-22T08:30:54.214Z,85.44
2019-03-22T08:33:25.659Z,85.28
2019-03-22T08:35:56.437Z,84.71
2019-03-22T08:38:27.246Z,84.94
2019-03-22T08:40:58.201Z,83.47
2019-03-22T08:43:29.305Z,83.48
2019-03-22T08:46:00.369Z,82.28
2019-03-22T08:48:32.309Z,80.52
2019-03-22T08:51:03.167Z,80.03
2019-03-22T08:53:34.586Z,81.54
2019-03-22T08:56:05.424Z,78.98
2019-03-22T08:58:37.674Z,79.21
2019-03-22T09:01:10.165Z,78.56
2019-03-22T09:03:41.300Z,78.84
2019-03-22T09:06:12.441Z,76.53
2019-03-22T09:08:43.679Z,75.84
2019-03-22T09:11:14.742Z,74.28
2019-03-22T09:13:45.995Z,73.59
2019-03-22T09:16:17.710Z,73.59
2019-03-22T09:18:49.121Z,71.57
2019-03-22T09:21:20.120Z,70.42
2019-03-22T09:23:51.658Z,71.50
2019-03-22T09:26:22.451Z,70.56
2019-03-22T09:28:53.269Z,69.98
2019-03-22T09:31:24.226Z,67.41
2019-03-22T09:33:55.005Z,66.85
2019-03-22T09:36:26.639Z,65.52
2019-03-22T09:38:57.598Z,64.13
2019-03-22T09:41:28.308Z,66.01
2019-03-22T09:43:59.393Z,65.19
2019-03-22T09:46:30.195Z,61.50
2019-03-22T09:49:00.979Z,60.23
2019-03-22T09:51:32.977Z,57.69
2019-03-22T09:54:03.847Z,55.12
2019-03-22T09:56:46.278Z,52.30
2019-03-22T09:59:07.392Z,52.30
2019-03-22T10:01:38.965Z,51.25
2019-03-22T10:04:10.018Z,47.44
2019-03-22T10:06:41.086Z,45.21
2019-03-22T10:09:12.175Z,43.40
2019-03-22T10:11:42.876Z,44.85
2019-03-22T10:14:13.650Z,42.70
2019-03-22T10:16:47.338Z,39.77
2019-03-22T10:19:17.781Z,39.52
2019-03-22T10:21:49.907Z,38.62
2019-03-22T10:24:20.649Z,36.92
2019-03-22T10:26:51.432Z,39.11
2019-03-22T10:29:22.311Z,36.07
2019-03-22T10:31:53.156Z,34.85
2019-03-22T10:34:25.342Z,35.15
2019-03-22T10:36:56.842Z,32.68
2019-03-22T10:39:27.702Z,33.39
2019-03-22T10:41:59.200Z,32.07
2019-03-22T10:44:30.846Z,32.51
2019-03-22T10:47:02.191Z,34.59
2019-03-22T10:49:33.487Z,32.30
2019-03-22T10:52:04.989Z,32.34
2019-03-22T10:54:36.065Z,32.34
2019-03-22T10:57:07.275Z,28.53
2019-03-22T10:59:38.093Z,27.54
2019-03-22T11:02:09.203Z,26.67
2019-03-22T11:04:40.281Z,29.14
2019-03-22T11:07:12.596Z,25.52
2019-03-22T11:09:43.777Z,26.24
2019-03-22T11:12:14.532Z,28.02
2019-03-22T11:14:45.893Z,25.94
2019-03-22T11:17:16.721Z,25.41
2019-03-22T11:19:47.786Z,23.73
2019-03-22T11:22:18.658Z,22.69
2019-03-22T11:24:49.459Z,21.96
2019-03-22T11:27:22.074Z,21.98
2019-03-22T11:29:52.867Z,21.72
2019-03-22T11:32:23.751Z,22.12
2019-03-22T11:34:54.564Z,21.24
2019-03-22T11:37:25.394Z,25.64
2019-03-22T11:39:56.519Z,21.87
2019-03-22T11:42:27.810Z,22.71
2019-03-22T11:44:59.758Z,21.96
2019-03-22T11:47:30.464Z,22.32
2019-03-22T11:50:01.481Z,21.80
2019-03-22T11:52:32.487Z,20.94
2019-03-22T11:55:03.596Z,20.35
2019-03-22T11:57:34.301Z,18.98
2019-03-22T12:00:08.890Z,20.83
2019-03-22T12:02:40.094Z,19.53
2019-03-22T12:05:11.272Z,17.71
2019-03-22T12:07:41.993Z,16.66
2019-03-22T12:10:13.677Z,18.08
2019-03-22T12:12:44.472Z,19.18
2019-03-22T12:15:17.585Z,18.83
2019-03-22T12:17:48.456Z,19.38
2019-03-22T12:20:20.522Z,17.10
2019-03-22T12:22:51.344Z,18.04
2019-03-22T12:25:24.446Z,17.08
2019-03-22T12:27:55.654Z,17.12
2019-03-22T12:30:26.481Z,17.16
2019-03-22T12:32:57.258Z,17.28
2019-03-22T12:35:28.331Z,18.94
2019-03-22T12:37:59.155Z,16.77
2019-03-22T12:40:30.112Z,16.11
2019-03-22T12:43:00.844Z,19.02
2019-03-22T12:45:33.144Z,18.98
2019-03-22T12:48:04.594Z,19.57
2019-03-22T12:50:35.736Z,18.11
2019-03-22T12:53:06.595Z,15.32
2019-03-22T12:55:37.799Z,14.96
2019-03-22T12:58:08.584Z,15.11
2019-03-22T13:00:39.679Z,14.36
2019-03-22T13:03:11.391Z,15.29
2019-03-22T13:05:42.125Z,13.75
2019-03-22T13:08:12.946Z,13.75
2019-03-22T13:10:43.759Z,14.32
2019-03-22T13:13:14.616Z,14.29
2019-03-22T13:15:45.493Z,15.57
2019-03-22T13:18:16.299Z,14.71
2019-03-22T13:20:47.297Z,13.61
2019-03-22T13:23:18.080Z,13.73
2019-03-22T13:25:48.867Z,14.38
2019-03-22T13:28:19.919Z,13.87
2019-03-22T13:30:51.114Z,13.81
2019-03-22T13:33:21.835Z,15.99
2019-03-22T13:35:52.915Z,14.14
2019-03-22T13:38:23.747Z,13.10
2019-03-22T13:40:54.810Z,14.00
2019-03-22T13:43:25.623Z,12.91
2019-03-22T13:45:56.699Z,13.03
2019-03-22T13:48:27.833Z,14.02
2019-03-22T13:50:58.687Z,14.52
2019-03-22T13:53:29.402Z,14.51
2019-03-22T13:56:00.342Z,12.88
2019-03-22T13:58:32.224Z,12.31
2019-03-22T14:01:03.039Z,11.02
2019-03-22T14:03:34.083Z,12.85
2019-03-22T14:06:04.918Z,13.83
2019-03-22T14:08:35.704Z,13.91
2019-03-22T14:11:06.483Z,14.04
2019-03-22T14:13:37.269Z,12.61
2019-03-22T14:16:08.131Z,12.09
2019-03-22T14:18:38.938Z,13.18
2019-03-22T14:21:10.001Z,11.07
2019-03-22T14:23:40.806Z,11.21
2019-03-22T14:26:11.677Z,11.36
2019-03-22T14:28:42.763Z,10.33
2019-03-22T14:31:13.590Z,9.60
2019-03-22T14:33:44.374Z,11.76
2019-03-22T14:36:15.163Z,12.33
2019-03-22T14:38:46.273Z,11.61
2019-03-22T14:41:17.568Z,11.36
2019-03-22T14:43:48.338Z,10.97
2019-03-22T14:46:19.122Z,10.66
2019-03-22T14:48:49.935Z,11.76
2019-03-22T14:51:20.703Z,10.56
2019-03-22T14:53:51.983Z,10.86
2019-03-22T14:56:22.880Z,11.63
2019-03-22T14:58:53.663Z,10.56
2019-03-22T15:01:24.469Z,11.23
2019-03-22T15:03:55.232Z,11.13
2019-03-22T15:06:26.038Z,11.21
2019-03-22T15:08:57.179Z,9.84
2019-03-22T15:11:28.096Z,10.90
2019-03-22T15:14:04.148Z,10.21
2019-03-22T15:17:12.085Z,9.70
2019-03-22T15:20:11.403Z,11.38
2019-03-22T15:22:59.826Z,9.94
2019-03-22T15:25:43.384Z,10.10
2019-03-22T15:28:31.810Z,8.74
2019-03-22T15:31:28.018Z,8.45
2019-03-22T15:34:27.546Z,8.36
2019-03-22T15:37:16.361Z,8.38
2019-03-22T15:40:00.659Z,9.29
2019-03-22T15:42:31.805Z,8.25
2019-03-22T15:45:04.145Z,9.15
2019-03-22T15:47:34.911Z,8.19
2019-03-22T15:50:07.977Z,8.12
2019-03-22T15:52:39.041Z,8.85
2019-03-22T15:55:10.433Z,8.21
2019-03-22T15:57:41.222Z,8.45
2019-03-22T16:00:15.445Z,9.42
2019-03-22T16:02:46.998Z,8.65
2019-03-22T16:05:18.074Z,9.11
2019-03-22T16:07:49.184Z,9.50
2019-03-22T16:10:19.964Z,8.71
2019-03-22T16:12:51.475Z,9.63
2019-03-22T16:15:22.616Z,10.75
2019-03-22T16:17:53.639Z,10.57
2019-03-22T16:20:24.697Z,11.40
2019-03-22T16:22:55.844Z,11.61
2019-03-22T16:25:26.723Z,11.55
2019-03-22T16:27:57.891Z,11.39
2019-03-22T16:30:28.612Z,11.93
2019-03-22T16:33:00.008Z,12.59
2019-03-22T16:35:30.800Z,12.24
2019-03-22T16:38:01.876Z,12.74
2019-03-22T16:40:33.053Z,12.64
2019-03-22T16:43:04.179Z,12.48
2019-03-22T16:45:42.652Z,12.75
2019-03-22T16:48:13.423Z,12.29
2019-03-22T16:50:44.242Z,12.83
2019-03-22T16:53:14.931Z,13.05
2019-03-22T16:55:46.151Z,13.25
2019-03-22T16:58:17.770Z,14.48
2019-03-22T17:00:49.947Z,16.34
2019-03-22T17:03:20.915Z,16.38
2019-03-22T17:05:51.788Z,16.73
2019-03-22T17:08:22.636Z,17.00
2019-03-22T17:10:53.559Z,18.07
2019-03-22T17:13:24.374Z,19.34
2019-03-22T17:15:55.224Z,20.68
2019-03-22T17:18:26.949Z,22.68
2019-03-22T17:20:58.402Z,24.05
2019-03-22T17:23:29.542Z,26.10
2019-03-22T17:26:00.588Z,27.44
2019-03-22T17:28:31.330Z,28.03
2019-03-22T17:31:02.428Z,28.69
2019-03-22T17:33:33.520Z,30.66
2019-03-22T17:36:05.026Z,30.96
2019-03-22T17:38:36.228Z,31.87
2019-03-22T17:41:07.370Z,33.22
2019-03-22T17:43:38.496Z,34.37
2019-03-22T17:46:09.279Z,36.00
2019-03-22T17:48:41.401Z,36.92
2019-03-22T17:51:12.689Z,38.47
2019-03-22T17:53:44.214Z,38.80
2019-03-22T17:56:15.727Z,41.11
2019-03-22T17:58:47.207Z,42.50
2019-03-22T18:01:19.059Z,43.32
2019-03-22T18:03:50.215Z,44.53
2019-03-22T18:06:21.413Z,45.23
2019-03-22T18:08:52.193Z,46.84
2019-03-22T18:11:23.108Z,47.21
2019-03-22T18:13:54.254Z,48.80
2019-03-22T18:16:25.500Z,50.10
2019-03-22T18:18:57.269Z,51.63
2019-03-22T18:21:28.128Z,52.21
2019-03-22T18:23:58.874Z,52.45
2019-03-22T18:26:29.712Z,53.19
2019-03-22T18:29:01.607Z,54.29
2019-03-22T18:31:32.330Z,55.17
2019-03-22T18:34:03.143Z,55.54
2019-03-22T18:36:34.569Z,55.80
2019-03-22T18:39:07.756Z,54.75
2019-03-22T18:41:39.028Z,54.68
2019-03-22T18:44:09.884Z,55.14
2019-03-22T18:46:41.524Z,56.97
2019-03-22T18:49:12.477Z,58.25
2019-03-22T18:51:43.671Z,57.83
2019-03-22T18:54:15.246Z,57.56
2019-03-22T18:56:46.094Z,59.42
2019-03-22T18:59:17.262Z,59.64
2019-03-22T19:01:48.460Z,60.31
2019-03-22T19:04:20.024Z,61.02
2019-03-22T19:06:50.908Z,61.72
2019-03-22T19:09:22.111Z,63.66
2019-03-22T19:11:53.758Z,63.93
2019-03-22T19:14:26.471Z,64.38
2019-03-22T19:16:57.380Z,64.12
2019-03-22T19:19:28.611Z,64.07
2019-03-22T19:22:00.053Z,66.79
2019-03-22T19:24:31.139Z,66.66
2019-03-22T19:27:02.367Z,67.45
2019-03-22T19:29:33.662Z,67.86
2019-03-22T19:32:13.266Z,68.95
2019-03-22T19:34:37.531Z,67.86
2019-03-22T19:37:08.258Z,68.32
2019-03-22T19:39:39.629Z,67.75
2019-03-22T19:42:11.066Z,67.95
2019-03-22T19:44:43.147Z,70.39
2019-03-22T19:47:13.977Z,72.83
2019-03-22T19:49:45.367Z,72.80
2019-03-22T19:52:16.135Z,73.21
2019-03-22T19:54:47.207Z,73.69
2019-03-22T19:57:18.079Z,76.24
2019-03-22T19:59:49.687Z,75.06
2019-03-22T20:02:22.053Z,75.64
2019-03-22T20:05:04.238Z,77.10
2019-03-22T20:07:27.224Z,78.90
2019-03-22T20:09:58.128Z,78.53
2019-03-22T20:12:29.206Z,79.36
2019-03-22T20:15:00.041Z,80.00
2019-03-22T20:17:30.877Z,79.91
2019-03-22T20:20:02.503Z,81.25
2019-03-22T20:22:33.342Z,81.13
2019-03-22T20:25:04.200Z,81.10
2019-03-22T20:27:35.044Z,82.43
2019-03-22T20:30:07.125Z,82.15
2019-03-22T20:32:37.932Z,83.34
2019-03-22T20:35:16.061Z,83.89
2019-03-22T20:37:42.404Z,84.59
2019-03-22T20:40:14.978Z,84.80
2019-03-22T20:42:46.460Z,86.48
2019-03-22T20:45:24.177Z,86.12
2019-03-22T20:47:50.234Z,86.93
2019-03-22T20:50:22.603Z,87.33
2019-03-22T20:52:54.464Z,88.45
2019-03-22T20:55:25.264Z,87.92
2019-03-22T20:57:56.045Z,89.32
2019-03-22T21:00:27.508Z,89.62
2019-03-22T21:02:59.279Z,90.77
2019-03-22T21:05:30.033Z,91.05
2019-03-22T21:08:01.691Z,91.77
2019-03-22T21:10:32.915Z,92.05
2019-03-22T21:13:03.743Z,91.81
2019-03-22T21:15:34.755Z,92.32
2019-03-22T21:18:05.600Z,93.14
2019-03-22T21:20:37.074Z,93.03
2019-03-22T21:23:08.317Z,93.17
2019-03-22T21:25:39.710Z,95.43
2019-03-22T21:28:11.192Z,96.40
2019-03-22T21:30:41.915Z,96.38
2019-03-22T21:33:12.738Z,98.78
2019-03-22T21:35:43.807Z,99.01
2019-03-22T21:38:15.803Z,100.00
2019-03-22T21:40:47.230Z,100.00
2019-03-22T21:43:18.067Z,100.00
2019-03-22T21:45:49.230Z,100.00
2019-03-22T21:48:20.046Z,100.00
2019-03-22T21:50:50.830Z,100.00
2019-03-22T21:53:22.185Z,100.00
2019-03-22T21:55:54.283Z,100.00
2019-03-22T21:58:25.904Z,100.00
2019-03-22T22:00:56.636Z,100.00
2019-03-22T22:03:28.680Z,100.00
2019-03-22T22:05:59.872Z,100.00
2019-03-22T22:08:31.040Z,100.00
2019-03-22T22:11:02.530Z,100.00
2019-03-22T22:13:34.059Z,100.00
2019-03-22T22:16:05.334Z,100.00
2019-03-22T22:18:36.648Z,100.00
2019-03-22T22:21:07.796Z,100.00
2019-03-22T22:23:38.929Z,100.00
2019-03-22T22:26:10.523Z,100.00
2019-03-22T22:28:42.439Z,100.00
2019-03-22T22:31:13.488Z,100.00
2019-03-22T22:33:44.641Z,100.00
2019-03-22T22:36:17.515Z,100.00
2019-03-22T22:38:48.430Z,100.00
2019-03-22T22:41:19.269Z,100.00
2019-03-22T22:43:50.505Z,100.00
2019-03-22T22:46:21.575Z,100.00
2019-03-22T22:48:52.352Z,100.00
2019-03-22T22:51:24.382Z,100.00
2019-03-22T22:53:55.223Z,100.00
2019-03-22T22:56:26.590Z,100.00
2019-03-22T22:58:58.027Z,100.00
2019-03-22T23:01:29.639Z,100.00
2019-03-22T23:04:00.909Z,100.00
2019-03-22T23:06:32.471Z,100.00
2019-03-22T23:09:03.589Z,100.00
2019-03-22T23:11:36.295Z,100.00
2019-03-22T23:14:07.950Z,100.00
2019-03-22T23:16:39.301Z,100.00
2019-03-22T23:19:11.453Z,100.00
2019-03-22T23:21:42.373Z,100.00
2019-03-22T23:24:13.661Z,100.00
2019-03-22T23:26:45.027Z,100.00
2019-03-22T23:29:17.167Z,100.00
2019-03-22T23:31:49.265Z,100.00
2019-03-22T23:34:21.425Z,100.00
2019-03-22T23:36:52.247Z,100.00
2019-03-22T23:39:23.758Z,100.00
2019-03-22T23:41:55.322Z,100.00
2019-03-22T23:44:26.490Z,100.00
2019-03-22T23:46:57.846Z,100.00
2019-03-22T23:49:29.498Z,100.00
2019-03-22T23:52:00.396Z,100.00
2019-03-22T23:54:31.727Z,100.00
2019-03-22T23:57:02.963Z,100.00
2019-03-22T23:59:35.198Z,100.00
